createdAt,value
2018-08-09T00:03:12.955Z,7.00
2018-08-09T00:08:16.309Z,6.87
2018-08-09T00:13:19.683Z,9.40
2018-08-09T00:18:23.417Z,7.63
2018-08-09T00:23:27.226Z,6.60
2018-08-09T00:28:30.541Z,7.33
2018-08-09T00:33:34.349Z,7.30
2018-08-09T00:38:37.630Z,7.47
2018-08-09T00:43:40.865Z,8.20
2018-08-09T00:48:44.214Z,8.70
2018-08-09T00:53:47.437Z,8.80
2018-08-09T00:58:50.685Z,8.47
2018-08-09T01:03:54.532Z,7.87
2018-08-09T01:09:03.406Z,8.30
2018-08-09T01:14:07.575Z,7.70
2018-08-09T01:19:10.764Z,8.93
2018-08-09T01:24:14.057Z,8.50
2018-08-09T01:29:17.456Z,8.40
2018-08-09T01:34:20.781Z,8.33
2018-08-09T01:39:24.294Z,8.50
2018-08-09T01:44:27.612Z,8.63
2018-08-09T01:49:30.859Z,8.60
2018-08-09T01:54:34.337Z,8.57
2018-08-09T01:59:37.618Z,10.50
2018-08-09T02:04:40.858Z,7.90
2018-08-09T02:09:44.234Z,8.40
2018-08-09T02:14:47.494Z,7.90
2018-08-09T02:19:50.828Z,7.43
2018-08-09T02:24:54.144Z,7.47
2018-08-09T02:29:57.370Z,7.60
2018-08-09T02:35:00.775Z,8.30
2018-08-09T02:40:04.670Z,7.70
2018-08-09T02:45:07.926Z,7.70
2018-08-09T02:50:11.174Z,7.90
2018-08-09T02:55:14.876Z,7.20
2018-08-09T03:00:18.105Z,7.73
2018-08-09T03:05:21.497Z,7.77
2018-08-09T03:10:24.715Z,6.97
2018-08-09T03:15:27.956Z,7.10
2018-08-09T03:20:31.269Z,7.50
2018-08-09T03:25:34.496Z,7.43
2018-08-09T03:30:37.776Z,6.73
2018-08-09T03:35:41.023Z,7.20
2018-08-09T03:40:44.542Z,6.60
2018-08-09T03:45:47.761Z,7.60
2018-08-09T03:50:51.870Z,7.27
2018-08-09T03:55:55.486Z,7.53
2018-08-09T04:00:58.887Z,7.77
2018-08-09T04:06:02.288Z,5.80
2018-08-09T04:11:05.947Z,5.80
2018-08-09T04:16:09.246Z,6.80
2018-08-09T04:21:12.680Z,6.20
2018-08-09T04:26:16.736Z,6.30
2018-08-09T04:31:20.066Z,6.43
2018-08-09T04:36:23.619Z,6.90
2018-08-09T04:41:26.859Z,7.40
2018-08-09T04:46:30.113Z,6.80
2018-08-09T04:51:33.394Z,5.93
2018-08-09T04:56:39.577Z,6.33
2018-08-09T05:01:42.846Z,5.67
2018-08-09T05:06:46.678Z,6.00
2018-08-09T05:11:49.869Z,5.67
2018-08-09T05:16:53.371Z,5.67
2018-08-09T05:21:56.888Z,5.17
2018-08-09T05:27:00.422Z,5.87
2018-08-09T05:32:03.728Z,5.60
2018-08-09T05:37:07.677Z,5.47
2018-08-09T05:42:10.988Z,5.30
2018-08-09T05:47:14.337Z,5.87
2018-08-09T05:52:17.666Z,4.60
2018-08-09T05:57:20.896Z,4.60
2018-08-09T06:02:24.311Z,5.70
2018-08-09T06:07:27.605Z,4.90
2018-08-09T06:12:31.564Z,4.80
2018-08-09T06:17:34.824Z,5.10
2018-08-09T06:22:38.117Z,4.73
2018-08-09T06:27:41.466Z,5.00
2018-08-09T06:32:45.046Z,4.97
2018-08-09T06:37:48.435Z,4.87
2018-08-09T06:42:51.709Z,5.00
2018-08-09T06:47:55.288Z,5.20
2018-08-09T06:52:58.844Z,5.60
2018-08-09T06:58:02.239Z,4.33
2018-08-09T07:03:05.756Z,4.87
2018-08-09T07:08:10.074Z,5.10
2018-08-09T07:13:13.501Z,4.80
2018-08-09T07:18:16.825Z,4.17
2018-08-09T07:23:20.086Z,4.67
2018-08-09T07:28:23.342Z,5.17
2018-08-09T07:33:26.731Z,4.50
2018-08-09T07:38:30.031Z,4.83
2018-08-09T07:43:34.535Z,4.00
2018-08-09T07:48:37.967Z,4.40
2018-08-09T07:53:41.898Z,4.30
2018-08-09T07:58:45.353Z,4.27
2018-08-09T08:03:49.016Z,4.87
2018-08-09T08:08:52.538Z,4.70
2018-08-09T08:13:56.133Z,4.50
2018-08-09T08:18:59.370Z,4.57
2018-08-09T08:24:03.522Z,4.87
2018-08-09T08:29:06.972Z,4.67
2018-08-09T08:34:10.323Z,4.53
2018-08-09T08:39:13.713Z,4.53
2018-08-09T08:44:17.245Z,7.10
2018-08-09T08:49:21.618Z,6.43
2018-08-09T08:54:24.935Z,7.33
2018-08-09T08:59:28.328Z,7.97
2018-08-09T09:04:32.195Z,8.73
2018-08-09T09:09:35.715Z,7.50
2018-08-09T09:14:39.106Z,8.50
2018-08-09T09:19:42.550Z,8.10
2018-08-09T09:24:46.586Z,8.00
2018-08-09T09:29:49.865Z,8.50
2018-08-09T09:34:53.162Z,6.90
2018-08-09T09:39:56.695Z,7.30
2018-08-09T09:45:00.330Z,8.00
2018-08-09T09:50:03.942Z,7.97
2018-08-09T09:55:07.860Z,7.00
2018-08-09T10:00:16.465Z,7.93
2018-08-09T10:05:19.743Z,6.80
2018-08-09T10:10:24.040Z,6.67
2018-08-09T10:15:27.497Z,6.70
2018-08-09T10:20:30.826Z,5.97
2018-08-09T10:25:34.527Z,6.20
2018-08-09T10:30:38.300Z,6.60
2018-08-09T10:35:41.873Z,6.30
2018-08-09T10:40:45.397Z,6.20
2018-08-09T10:45:49.264Z,5.90
2018-08-09T10:50:53.199Z,5.27
2018-08-09T10:55:56.757Z,5.90
2018-08-09T11:01:00.477Z,5.80
2018-08-09T11:06:03.738Z,5.33
2018-08-09T11:11:12.938Z,5.40
2018-08-09T11:16:16.410Z,5.50
2018-08-09T11:21:20.325Z,5.80
2018-08-09T11:26:24.652Z,4.90
2018-08-09T11:31:28.211Z,5.30
2018-08-09T11:36:31.505Z,5.70
2018-08-09T11:41:34.717Z,5.50
2018-08-09T11:46:38.029Z,6.13
2018-08-09T11:51:41.588Z,5.73
2018-08-09T11:56:45.249Z,5.20
2018-08-09T12:01:48.904Z,6.27
2018-08-09T12:06:52.349Z,5.87
2018-08-09T12:11:55.610Z,5.13
2018-08-09T12:16:58.970Z,5.70
2018-08-09T12:22:02.724Z,5.67
2018-08-09T12:27:06.093Z,5.63
2018-08-09T12:32:09.576Z,6.07
2018-08-09T12:37:12.913Z,6.30
2018-08-09T12:42:16.468Z,6.03
2018-08-09T12:47:19.789Z,5.83
2018-08-09T12:52:24.303Z,4.87
2018-08-09T12:57:27.844Z,5.60
2018-08-09T13:02:33.033Z,6.33
2018-08-09T13:07:36.515Z,6.30
2018-08-09T13:12:39.749Z,7.10
2018-08-09T13:17:44.100Z,6.10
2018-08-09T13:22:48.872Z,5.70
2018-08-09T13:27:52.270Z,5.63
2018-08-09T13:32:55.628Z,5.80
2018-08-09T13:37:59.160Z,6.70
2018-08-09T13:43:02.664Z,6.00
2018-08-09T13:48:06.791Z,6.07
2018-08-09T13:53:10.302Z,5.00
2018-08-09T13:58:13.824Z,6.13
2018-08-09T14:03:17.354Z,5.60
2018-08-09T14:08:21.517Z,5.77
2018-08-09T14:13:25.209Z,5.93
2018-08-09T14:18:28.917Z,5.63
2018-08-09T14:23:33.479Z,5.00
2018-08-09T14:28:37.922Z,5.30
2018-08-09T14:33:41.962Z,5.50
2018-08-09T14:44:24.453Z,5.57
2018-08-09T14:49:27.839Z,5.00
2018-08-09T14:54:31.180Z,5.73
2018-08-09T14:59:34.860Z,5.77
2018-08-09T15:04:38.641Z,5.10
2018-08-09T15:09:43.505Z,5.57
2018-08-09T15:14:47.004Z,5.87
2018-08-09T15:19:50.954Z,5.60
2018-08-09T15:24:54.296Z,5.53
2018-08-09T15:29:57.632Z,7.47
2018-08-09T15:54:55.357Z,6.13
2018-08-09T15:59:59.818Z,7.00
2018-08-09T16:05:04.036Z,6.37
2018-08-09T16:10:10.459Z,6.20
2018-08-09T16:15:16.730Z,6.20
2018-08-09T16:20:20.035Z,6.50
2018-08-09T16:25:30.453Z,6.43
2018-08-09T16:30:33.775Z,6.63
2018-08-09T16:35:37.520Z,6.53
2018-08-09T16:40:41.328Z,6.43
2018-08-09T16:45:44.857Z,6.90
2018-08-09T16:50:48.750Z,7.23
2018-08-09T16:55:52.085Z,6.70
2018-08-09T17:00:55.744Z,7.77
2018-08-09T17:05:59.504Z,9.00
2018-08-09T17:11:03.222Z,8.33
2018-08-09T17:16:06.643Z,9.20
2018-08-09T17:21:09.944Z,7.90
2018-08-09T17:26:13.394Z,8.80
2018-08-09T17:31:17.299Z,10.10
2018-08-09T17:36:21.013Z,7.80
2018-08-09T17:41:24.911Z,9.17
2018-08-09T17:46:29.183Z,8.07
2018-08-09T17:51:32.790Z,8.90
2018-08-09T17:56:36.428Z,8.83
2018-08-09T18:01:39.814Z,8.40
2018-08-09T18:06:43.224Z,9.17
2018-08-09T18:11:47.181Z,9.03
2018-08-09T18:16:51.208Z,8.33
2018-08-09T18:21:54.933Z,8.37
2018-08-09T18:26:58.491Z,8.60
2018-08-09T18:32:02.133Z,8.47
2018-08-09T18:37:06.124Z,9.50
2018-08-09T18:42:09.634Z,8.87
2018-08-09T18:47:13.040Z,9.20
2018-08-09T18:52:16.769Z,8.40
2018-08-09T18:57:20.025Z,8.77
2018-08-09T19:02:23.485Z,8.90
2018-08-09T19:07:27.358Z,8.43
2018-08-09T19:12:30.732Z,8.90
2018-08-09T19:17:34.396Z,9.37
2018-08-09T19:22:38.094Z,8.90
2018-08-09T19:27:42.188Z,9.63
2018-08-09T19:32:46.526Z,8.33
2018-08-09T19:37:50.004Z,9.60
2018-08-09T19:42:53.464Z,9.40
2018-08-09T19:47:56.916Z,9.20
2018-08-09T19:53:00.807Z,9.33
2018-08-09T19:58:04.495Z,8.80
2018-08-09T20:03:08.457Z,7.70
2018-08-09T20:08:12.094Z,7.93
2018-08-09T20:13:15.308Z,7.43
2018-08-09T20:18:19.545Z,7.73
2018-08-09T20:23:23.705Z,7.37
2018-08-09T20:28:27.408Z,7.30
2018-08-09T20:33:33.454Z,8.30
2018-08-09T20:38:37.413Z,8.00
2018-08-09T20:43:40.957Z,8.43
2018-08-09T20:48:45.250Z,7.87
2018-08-09T20:53:49.696Z,8.63
2018-08-09T20:58:55.660Z,8.33
2018-08-09T21:03:59.139Z,8.43
2018-08-09T21:09:02.796Z,8.00
2018-08-09T21:14:06.681Z,7.50
2018-08-09T21:19:10.912Z,7.50
2018-08-09T21:24:14.879Z,8.20
2018-08-09T21:29:20.024Z,7.77
2018-08-09T21:34:23.996Z,8.77
2018-08-09T21:39:28.152Z,8.80
2018-08-09T21:44:32.666Z,8.60
2018-08-09T21:49:37.726Z,8.10
2018-08-09T21:54:41.739Z,9.20
2018-08-09T21:59:47.289Z,8.07
2018-08-09T22:04:56.715Z,7.60
2018-08-09T22:10:05.994Z,8.63
2018-08-09T22:15:14.877Z,8.33
2018-08-09T22:20:23.964Z,8.20
2018-08-09T22:25:27.630Z,8.50
2018-08-09T22:30:31.508Z,8.13
2018-08-09T22:35:35.813Z,8.20
2018-08-09T22:40:39.325Z,8.77
2018-08-09T22:45:42.786Z,7.90
2018-08-09T22:50:46.974Z,7.13
2018-08-09T22:55:51.163Z,7.40
2018-08-09T23:00:54.674Z,8.13
2018-08-09T23:05:57.960Z,7.83
2018-08-09T23:11:01.429Z,7.70
2018-08-09T23:16:05.356Z,7.37
2018-08-09T23:21:08.759Z,6.90
2018-08-09T23:26:12.015Z,7.10
2018-08-09T23:31:15.313Z,6.80
2018-08-09T23:36:18.569Z,6.90
2018-08-09T23:41:21.855Z,6.43
2018-08-09T23:46:25.122Z,5.67
2018-08-09T23:51:28.422Z,5.83
2018-08-09T23:56:31.919Z,6.77
